Time;durP1;ratioP1;P1;durP2;ratioP2;P2;SDS_P1;SDS_P2;PMS_P1;PMS_P2;Temp;Humidity;BMP_temperature;BMP_pressure;BME280_temperature;BME280_humidity;BME280_pressure;Samples;Min_cycle;Max_cycle;Signal;HPM_P1;HPM_P2
2021/12/02 00:01:12;;;;;;;10.82;1.58;;;7.00;92.60;;;;;;5066841;28;20025;-81
2021/12/02 00:03:39;;;;;;;7.80;1.20;;;7.00;92.40;;;;;;5071470;28;20028;-82
2021/12/02 00:06:09;;;;;;;9.32;1.20;;;7.00;92.40;;;;;;5068297;28;20174;-82
2021/12/02 00:08:35;;;;;;;11.52;1.60;;;7.00;92.40;;;;;;5069829;28;20029;-81
2021/12/02 00:11:00;;;;;;;9.43;1.40;;;7.10;92.20;;;;;;5070282;28;20058;-82
2021/12/02 00:13:28;;;;;;;14.07;1.50;;;7.10;92.20;;;;;;5068409;28;20079;-82
2021/12/02 00:16:05;;;;;;;9.90;1.20;;;7.10;92.20;;;;;;5065828;28;20107;-82
2021/12/02 00:21:22;;;;;;;9.93;1.05;;;7.00;91.80;;;;;;5069455;28;20088;-82
2021/12/02 00:23:50;;;;;;;11.15;1.13;;;6.90;92.20;;;;;;5087433;28;20013;-82
2021/12/02 00:26:18;;;;;;;6.60;0.82;;;6.80;92.60;;;;;;5064447;28;20025;-82
2021/12/02 00:28:44;;;;;;;6.65;0.90;;;6.80;92.90;;;;;;5059438;28;20391;-83
2021/12/02 00:31:15;;;;;;;14.43;1.63;;;6.70;93.10;;;;;;5056797;28;20388;-82
2021/12/02 00:33:45;;;;;;;7.93;0.60;;;6.70;93.20;;;;;;5066216;28;20021;-83
2021/12/02 00:36:13;;;;;;;13.65;1.02;;;6.70;93.30;;;;;;5067919;28;20024;-83
2021/12/02 00:38:41;;;;;;;11.98;1.48;;;6.70;93.30;;;;;;5064204;28;20029;-82
2021/12/02 00:41:11;;;;;;;10.20;0.90;;;6.70;93.50;;;;;;5059699;28;20033;-83
2021/12/02 00:43:38;;;;;;;9.77;0.90;;;6.60;93.50;;;;;;5063361;28;20044;-83
2021/12/02 00:46:08;;;;;;;9.70;0.73;;;6.60;93.60;;;;;;5066751;28;20463;-82
2021/12/02 00:48:35;;;;;;;12.32;0.93;;;6.60;93.70;;;;;;5059908;28;20036;-83
2021/12/02 00:51:01;;;;;;;8.88;1.05;;;6.60;93.80;;;;;;5063726;28;20421;-82
2021/12/02 00:53:27;;;;;;;12.43;0.80;;;6.60;93.90;;;;;;5069035;28;20021;-84
2021/12/02 00:55:54;;;;;;;12.85;1.25;;;6.60;94.00;;;;;;5069062;28;21437;-84
2021/12/02 00:58:23;;;;;;;8.27;0.82;;;6.60;94.50;;;;;;5066478;28;20029;-84
2021/12/02 01:00:52;;;;;;;9.30;1.00;;;6.50;94.90;;;;;;5072924;28;20062;-84
2021/12/02 01:03:19;;;;;;;6.82;0.90;;;6.20;94.90;;;;;;5069940;28;20052;-84
2021/12/02 01:05:45;;;;;;;6.50;0.85;;;6.00;95.30;;;;;;5067065;28;20564;-84
2021/12/02 01:08:11;;;;;;;11.10;1.00;;;6.00;95.70;;;;;;5061718;28;20024;-83
2021/12/02 01:10:40;;;;;;;9.65;0.85;;;6.10;95.70;;;;;;5060730;28;20033;-84
2021/12/02 01:13:05;;;;;;;9.48;1.13;;;6.20;95.70;;;;;;5061790;28;20056;-84
2021/12/02 01:15:31;;;;;;;8.20;0.70;;;6.30;95.60;;;;;;5075317;28;20025;-85
2021/12/02 01:17:57;;;;;;;13.82;0.85;;;6.30;95.60;;;;;;5080767;28;20045;-85
2021/12/02 01:20:23;;;;;;;7.05;0.82;;;6.50;95.50;;;;;;5078015;28;20013;-84
2021/12/02 01:22:52;;;;;;;10.05;0.82;;;6.60;95.30;;;;;;5070682;28;20028;-85
2021/12/02 01:25:19;;;;;;;8.02;1.00;;;6.70;95.20;;;;;;5057904;28;20029;-84
2021/12/02 01:27:48;;;;;;;10.50;1.02;;;6.70;95.00;;;;;;5068817;28;20111;-85
2021/12/02 01:30:15;;;;;;;7.25;0.77;;;6.80;94.90;;;;;;5074575;28;20479;-85
2021/12/02 01:32:41;;;;;;;5.55;0.50;;;6.70;94.90;;;;;;5074116;28;20034;-85
2021/12/02 01:35:08;;;;;;;5.05;0.60;;;6.80;94.90;;;;;;5073726;28;20150;-84
2021/12/02 01:37:33;;;;;;;5.25;0.47;;;6.90;94.90;;;;;;5069360;28;20126;-85
2021/12/02 01:40:00;;;;;;;8.30;0.55;;;6.90;94.80;;;;;;5073401;28;20424;-84
2021/12/02 01:42:28;;;;;;;3.88;0.52;;;7.00;94.70;;;;;;5074262;28;20029;-84
2021/12/02 01:44:56;;;;;;;7.03;0.50;;;7.10;94.70;;;;;;5074305;28;20029;-84
2021/12/02 01:47:27;;;;;;;6.60;0.68;;;7.10;94.50;;;;;;5068769;28;20028;-84
2021/12/02 01:50:00;;;;;;;5.50;0.80;;;7.10;94.40;;;;;;5074328;28;20036;-84
2021/12/02 01:52:31;;;;;;;6.82;0.50;;;7.10;94.30;;;;;;5063313;28;20471;-84
2021/12/02 01:55:11;;;;;;;4.45;0.73;;;7.10;94.20;;;;;;5073960;28;20111;-84
2021/12/02 01:57:41;;;;;;;10.88;0.55;;;7.10;94.30;;;;;;5070809;28;20089;-84
2021/12/02 02:00:18;;;;;;;9.77;1.00;;;7.10;94.30;;;;;;5073403;28;20491;-84
2021/12/02 02:02:44;;;;;;;7.57;0.60;;;7.10;94.40;;;;;;5073660;28;20033;-84
2021/12/02 02:05:12;;;;;;;7.60;0.77;;;7.10;94.30;;;;;;5073525;28;20028;-83
2021/12/02 02:08:10;;;;;;;8.68;1.38;;;7.00;94.40;;;;;;5069542;28;20086;-83
2021/12/02 02:10:39;;;;;;;5.80;0.50;;;6.90;94.50;;;;;;5073588;28;20609;-82
2021/12/02 02:13:10;;;;;;;6.95;0.60;;;6.80;94.70;;;;;;5075718;28;20081;-82
2021/12/02 02:15:43;;;;;;;9.35;0.50;;;6.70;94.80;;;;;;5084647;28;20014;-82
2021/12/02 02:18:18;;;;;;;5.55;0.63;;;6.80;95.00;;;;;;5088295;28;20044;-83
2021/12/02 02:23:30;;;;;;;7.75;0.47;;;6.80;95.00;;;;;;5073317;28;20040;-83
2021/12/02 02:25:56;;;;;;;4.25;0.40;;;6.80;95.00;;;;;;5070767;28;20020;-83
2021/12/02 02:28:22;;;;;;;4.97;0.38;;;6.80;94.90;;;;;;5072482;28;20052;-84
2021/12/02 02:30:48;;;;;;;7.18;0.60;;;6.80;95.00;;;;;;5073463;28;20490;-84
2021/12/02 02:33:15;;;;;;;6.65;0.50;;;6.80;94.90;;;;;;5072844;28;20036;-83
2021/12/02 02:35:43;;;;;;;5.72;0.60;;;6.80;94.90;;;;;;5070083;28;20028;-83
2021/12/02 02:38:09;;;;;;;6.53;0.40;;;6.70;94.80;;;;;;5072724;28;20487;-83
2021/12/02 02:40:38;;;;;;;8.25;0.85;;;6.70;94.90;;;;;;5072882;28;20059;-83
2021/12/02 02:43:08;;;;;;;4.18;0.50;;;6.70;94.90;;;;;;5072783;28;20386;-83
2021/12/02 02:45:35;;;;;;;6.97;0.55;;;6.60;95.00;;;;;;5069335;28;20479;-83
2021/12/02 02:48:01;;;;;;;6.55;0.47;;;6.50;95.20;;;;;;5072940;28;20104;-83
2021/12/02 02:50:29;;;;;;;8.15;0.93;;;6.50;95.30;;;;;;5073108;28;20048;-83
2021/12/02 02:53:22;;;;;;;7.50;0.70;;;6.40;95.50;;;;;;5062916;28;20027;-84
2021/12/02 03:02:04;;;;;;;3.78;0.30;;;6.30;95.70;;;;;;5069347;28;20475;-82
2021/12/02 03:06:40;;;;;;;4.60;0.30;;;6.20;95.90;;;;;;5072545;28;20028;-81
2021/12/02 03:09:45;;;;;;;6.65;0.30;;;6.10;95.90;;;;;;5073579;28;20086;-81
2021/12/02 03:12:03;;;;;;;5.05;0.40;;;6.10;96.00;;;;;;5080610;28;20044;-82
2021/12/02 03:14:47;;;;;;;5.20;0.28;;;6.20;96.10;;;;;;5095842;28;20032;-82
2021/12/02 03:17:13;;;;;;;5.13;0.30;;;6.10;96.00;;;;;;5069837;28;20028;-82
2021/12/02 03:19:44;;;;;;;1.63;0.25;;;6.10;96.10;;;;;;5079169;28;20352;-82
2021/12/02 03:22:11;;;;;;;3.78;0.30;;;6.10;96.20;;;;;;5076454;28;20024;-82
2021/12/02 03:24:38;;;;;;;2.53;0.22;;;6.00;96.20;;;;;;5075844;28;20060;-82
2021/12/02 03:27:04;;;;;;;2.63;0.20;;;6.00;96.30;;;;;;5053425;28;20064;-82
2021/12/02 03:29:30;;;;;;;3.80;0.32;;;5.90;96.40;;;;;;5063144;28;20036;-83
2021/12/02 03:31:56;;;;;;;3.80;0.20;;;5.90;96.40;;;;;;5066036;28;20033;-82
2021/12/02 03:34:21;;;;;;;4.88;0.30;;;5.90;96.40;;;;;;5067138;28;20475;-82
2021/12/02 03:36:50;;;;;;;3.33;0.20;;;5.90;96.40;;;;;;5053695;28;20495;-82
2021/12/02 03:39:16;;;;;;;3.13;0.17;;;5.80;96.40;;;;;;5055932;28;20017;-82
2021/12/02 03:41:42;;;;;;;6.38;0.30;;;5.80;96.40;;;;;;5055886;28;20468;-82
2021/12/02 03:44:08;;;;;;;5.40;0.50;;;5.80;96.40;;;;;;5056063;28;20394;-82
2021/12/02 03:46:35;;;;;;;2.40;0.10;;;5.80;96.50;;;;;;5055618;28;20029;-81
2021/12/02 03:49:01;;;;;;;3.75;0.20;;;5.80;96.40;;;;;;5056323;28;20025;-81
2021/12/02 03:51:27;;;;;;;3.38;0.15;;;5.70;96.50;;;;;;5055934;28;20069;-81
2021/12/02 03:53:54;;;;;;;2.05;0.20;;;5.60;96.60;;;;;;5055995;28;20029;-81
2021/12/02 03:56:20;;;;;;;2.88;0.80;;;5.60;96.70;;;;;;5055396;28;20040;-81
2021/12/02 03:58:48;;;;;;;2.80;0.10;;;5.60;96.70;;;;;;5055221;28;20525;-81
2021/12/02 04:01:15;;;;;;;2.55;0.10;;;5.60;96.70;;;;;;5055404;28;20023;-81
2021/12/02 04:03:41;;;;;;;2.65;0.30;;;5.50;96.80;;;;;;5056015;28;20104;-81
2021/12/02 04:06:07;;;;;;;3.55;0.10;;;5.50;96.80;;;;;;5055672;28;20764;-83
2021/12/02 04:08:42;;;;;;;3.58;0.10;;;5.50;96.80;;;;;;5055344;28;20116;-82
2021/12/02 04:11:25;;;;;;;2.50;0.10;;;5.40;96.90;;;;;;5067334;28;20033;-82
2021/12/02 04:16:17;;;;;;;2.92;0.20;;;5.40;97.00;;;;;;5055550;28;20037;-82
2021/12/02 04:18:43;;;;;;;2.90;0.20;;;5.40;97.00;;;;;;5055480;28;20036;-82
2021/12/02 04:21:09;;;;;;;3.55;0.10;;;5.40;97.00;;;;;;5054947;28;20028;-82
2021/12/02 04:23:35;;;;;;;2.88;0.10;;;5.40;97.10;;;;;;5055291;28;20060;-82
2021/12/02 04:26:00;;;;;;;1.65;0.10;;;5.30;97.10;;;;;;5054224;28;20364;-82
2021/12/02 04:28:26;;;;;;;1.65;0.32;;;5.30;97.20;;;;;;5072389;28;20048;-84
2021/12/02 04:30:52;;;;;;;1.95;0.10;;;5.30;97.20;;;;;;5074911;28;20031;-84
2021/12/02 04:33:17;;;;;;;2.65;0.10;;;5.30;97.20;;;;;;5068789;28;20112;-85
2021/12/02 04:35:43;;;;;;;4.15;0.20;;;5.30;97.20;;;;;;5070608;28;20112;-84
2021/12/02 04:38:09;;;;;;;2.42;0.10;;;5.30;97.20;;;;;;5074855;28;20136;-84
2021/12/02 04:40:36;;;;;;;2.60;0.10;;;5.30;97.20;;;;;;5074977;28;20024;-83
2021/12/02 04:43:03;;;;;;;2.25;0.17;;;5.40;97.10;;;;;;5075160;28;20028;-84
2021/12/02 04:45:28;;;;;;;2.03;0.00;;;5.40;97.00;;;;;;5074730;28;20048;-82
2021/12/02 04:47:54;;;;;;;2.03;0.10;;;5.50;97.00;;;;;;5074377;28;20573;-82
2021/12/02 04:50:20;;;;;;;1.25;0.00;;;5.40;96.90;;;;;;5075337;28;20383;-82
2021/12/02 04:52:45;;;;;;;3.22;0.10;;;5.50;97.00;;;;;;5074769;28;20028;-84
2021/12/02 04:55:11;;;;;;;4.45;0.10;;;5.50;96.90;;;;;;5074395;28;20032;-83
2021/12/02 04:57:37;;;;;;;1.80;0.03;;;5.50;96.90;;;;;;5074627;28;20040;-83
2021/12/02 05:00:05;;;;;;;2.03;0.10;;;5.50;97.00;;;;;;5074325;28;20395;-83
2021/12/02 05:02:31;;;;;;;2.50;0.10;;;5.60;96.80;;;;;;5074193;28;20029;-83
2021/12/02 05:04:56;;;;;;;1.80;0.08;;;5.50;96.80;;;;;;5075933;28;20077;-82
2021/12/02 05:07:22;;;;;;;2.75;0.30;;;5.50;96.90;;;;;;5087930;28;20050;-81
2021/12/02 05:09:48;;;;;;;3.60;0.20;;;5.50;96.90;;;;;;5095641;28;20032;-82
2021/12/02 05:12:13;;;;;;;2.15;0.10;;;5.50;97.00;;;;;;5081728;28;20094;-82
2021/12/02 05:14:39;;;;;;;2.90;0.20;;;5.50;97.00;;;;;;5074547;28;20060;-81
2021/12/02 05:17:05;;;;;;;2.58;0.20;;;5.50;97.10;;;;;;5069115;28;20441;-82
2021/12/02 05:19:30;;;;;;;3.85;0.20;;;5.50;97.00;;;;;;5074652;28;20020;-83
2021/12/02 05:21:56;;;;;;;2.85;0.20;;;5.50;97.00;;;;;;5074476;28;20043;-81
2021/12/02 05:24:21;;;;;;;3.88;0.30;;;5.40;97.10;;;;;;5074338;28;20478;-90
2021/12/02 05:26:47;;;;;;;3.28;0.20;;;5.30;97.20;;;;;;5072703;28;20064;-89
2021/12/02 05:29:13;;;;;;;3.83;0.22;;;5.30;97.40;;;;;;5069159;28;20103;-92
2021/12/02 05:31:39;;;;;;;1.58;0.10;;;5.20;97.30;;;;;;5063405;28;20111;-88
2021/12/02 05:34:05;;;;;;;4.18;0.20;;;5.10;97.40;;;;;;5063796;28;20429;-89
2021/12/02 05:36:30;;;;;;;4.95;0.10;;;5.10;97.60;;;;;;5067189;28;20028;-86
2021/12/02 05:38:56;;;;;;;4.30;0.20;;;5.20;97.50;;;;;;5063187;28;20489;-84
2021/12/02 05:41:21;;;;;;;4.43;0.25;;;5.10;97.40;;;;;;5066241;28;20066;-85
2021/12/02 05:43:47;;;;;;;2.72;0.10;;;5.00;97.40;;;;;;5058087;28;20078;-83
2021/12/02 05:46:13;;;;;;;2.42;0.08;;;5.00;97.40;;;;;;5059970;28;20029;-83
2021/12/02 05:48:40;;;;;;;1.15;0.10;;;5.10;97.40;;;;;;5064111;28;20017;-83
2021/12/02 05:51:06;;;;;;;0.47;0.00;;;5.10;97.40;;;;;;5065303;28;20111;-83
2021/12/02 05:53:31;;;;;;;2.55;0.20;;;5.20;97.30;;;;;;5065276;28;20059;-84
2021/12/02 05:55:57;;;;;;;1.88;0.28;;;5.20;97.10;;;;;;5062149;28;20052;-83
2021/12/02 05:58:23;;;;;;;1.08;0.00;;;5.20;97.20;;;;;;5066214;28;20067;-84
2021/12/02 06:00:49;;;;;;;1.58;0.00;;;5.20;97.10;;;;;;5068030;28;20025;-87
2021/12/02 06:03:15;;;;;;;6.53;0.10;;;5.30;97.00;;;;;;5062510;28;20044;-78
2021/12/02 06:05:46;;;;;;;2.97;0.10;;;5.40;97.10;;;;;;5068257;28;20020;-77
2021/12/02 06:08:11;;;;;;;2.17;0.10;;;5.40;97.10;;;;;;5058844;28;20029;-81
2021/12/02 06:10:37;;;;;;;5.70;0.30;;;5.40;97.10;;;;;;5067268;28;20025;-81
2021/12/02 06:13:03;;;;;;;2.35;0.10;;;5.40;97.30;;;;;;5064377;28;20029;-82
2021/12/02 06:15:29;;;;;;;2.20;0.10;;;5.60;97.80;;;;;;5061130;28;20047;-81
2021/12/02 06:17:55;;;;;;;4.38;0.30;;;5.70;97.70;;;;;;5069984;28;20488;-82
2021/12/02 06:20:20;;;;;;;3.97;0.10;;;5.70;97.70;;;;;;5070161;28;20021;-82
2021/12/02 06:22:47;;;;;;;1.38;0.05;;;5.80;97.40;;;;;;5063717;28;20124;-82
2021/12/02 06:27:44;;;;;;;1.45;0.00;;;5.90;97.10;;;;;;5062073;28;20127;-82
2021/12/02 06:30:12;;;;;;;3.30;0.20;;;6.00;97.10;;;;;;5072988;28;20062;-82
2021/12/02 06:32:37;;;;;;;1.75;0.28;;;6.00;96.80;;;;;;5072153;28;20452;-82
2021/12/02 06:35:04;;;;;;;1.08;0.20;;;6.00;96.60;;;;;;5072489;28;20043;-81
2021/12/02 06:37:29;;;;;;;1.42;0.20;;;6.10;96.30;;;;;;5069762;28;20037;-81
2021/12/02 06:39:55;;;;;;;1.33;0.10;;;6.00;96.30;;;;;;5048940;28;20021;-81
2021/12/02 06:42:21;;;;;;;4.25;0.30;;;6.00;96.10;;;;;;5046905;28;20051;-82
2021/12/02 06:44:50;;;;;;;2.92;0.17;;;5.90;95.90;;;;;;5045596;28;20120;-81
2021/12/02 06:47:15;;;;;;;8.77;0.30;;;5.90;96.10;;;;;;5036244;28;20029;-85
2021/12/02 06:49:41;;;;;;;2.85;0.13;;;5.80;96.20;;;;;;5049793;28;20028;-85
2021/12/02 06:52:13;;;;;;;4.68;0.30;;;5.80;96.10;;;;;;5053701;28;20185;-81
2021/12/02 06:54:39;;;;;;;4.90;0.30;;;5.70;96.00;;;;;;5072345;28;20056;-82
2021/12/02 06:57:05;;;;;;;1.90;0.30;;;5.70;96.10;;;;;;5070043;28;20051;-79
2021/12/02 06:59:31;;;;;;;2.13;0.30;;;5.50;96.00;;;;;;5072059;28;20033;-79
2021/12/02 07:01:57;;;;;;;3.65;0.55;;;5.50;96.10;;;;;;5072886;28;20033;-79
2021/12/02 07:04:22;;;;;;;3.50;0.35;;;5.50;96.20;;;;;;5085545;28;20046;-79
2021/12/02 07:06:48;;;;;;;0.55;0.10;;;5.50;96.20;;;;;;5086745;28;20514;-78
2021/12/02 07:09:14;;;;;;;2.55;0.20;;;5.50;96.40;;;;;;5068996;28;20106;-79
2021/12/02 07:11:42;;;;;;;2.63;0.30;;;5.50;96.60;;;;;;5055173;28;20108;-79
2021/12/02 07:14:11;;;;;;;3.33;0.43;;;5.50;96.60;;;;;;5053432;28;20025;-79
2021/12/02 07:16:38;;;;;;;3.63;0.32;;;5.50;96.40;;;;;;5053257;28;20036;-79
2021/12/02 07:19:05;;;;;;;2.85;0.22;;;5.50;96.50;;;;;;5053661;28;20028;-80
2021/12/02 07:21:31;;;;;;;3.50;0.32;;;5.50;96.40;;;;;;5053039;28;20460;-79
2021/12/02 07:23:59;;;;;;;4.55;0.40;;;5.60;96.60;;;;;;5055709;28;20029;-82
2021/12/02 07:26:25;;;;;;;1.52;0.32;;;5.60;96.70;;;;;;5057323;28;20063;-82
2021/12/02 07:28:51;;;;;;;2.38;0.43;;;5.70;96.90;;;;;;5055416;28;20126;-81
2021/12/02 07:31:16;;;;;;;3.40;0.50;;;5.80;96.70;;;;;;5052479;28;20033;-80
2021/12/02 07:33:47;;;;;;;2.53;0.75;;;5.80;96.50;;;;;;5051127;28;20029;-83
2021/12/02 07:36:13;;;;;;;3.13;0.30;;;5.90;96.50;;;;;;5055899;28;20037;-83
2021/12/02 07:38:39;;;;;;;2.35;0.30;;;5.90;96.00;;;;;;5053103;28;20025;-83
2021/12/02 07:41:05;;;;;;;3.15;0.40;;;5.90;95.60;;;;;;5061451;28;20021;-79
2021/12/02 07:43:33;;;;;;;4.53;0.38;;;5.90;95.60;;;;;;5053355;28;20112;-79
2021/12/02 07:46:01;;;;;;;4.53;0.60;;;5.90;95.40;;;;;;5054985;28;20021;-79
2021/12/02 07:48:29;;;;;;;0.88;0.32;;;5.90;95.40;;;;;;5058254;28;20032;-79
2021/12/02 07:50:59;;;;;;;4.60;0.60;;;5.90;95.50;;;;;;5052482;28;20067;-79
2021/12/02 07:53:27;;;;;;;4.45;0.63;;;6.00;95.40;;;;;;5053592;28;20033;-78
2021/12/02 07:55:55;;;;;;;3.97;0.80;;;5.90;95.10;;;;;;5065216;28;20544;-82
2021/12/02 07:58:22;;;;;;;3.20;0.52;;;5.80;95.00;;;;;;5064638;28;20036;-84
2021/12/02 08:00:49;;;;;;;3.95;0.50;;;5.80;95.00;;;;;;5067923;28;20497;-77
2021/12/02 08:03:15;;;;;;;2.00;0.55;;;5.70;95.10;;;;;;5071826;28;20029;-77
2021/12/02 08:05:41;;;;;;;2.58;0.40;;;5.80;95.40;;;;;;5068038;28;20041;-80
2021/12/02 08:08:07;;;;;;;4.07;0.50;;;5.70;95.10;;;;;;5072539;28;20033;-79
2021/12/02 08:10:33;;;;;;;2.40;0.60;;;5.70;95.40;;;;;;5051222;28;20021;-79
2021/12/02 08:13:01;;;;;;;3.35;0.70;;;5.70;95.30;;;;;;5056792;28;20025;-77
2021/12/02 08:15:28;;;;;;;3.70;0.73;;;5.70;95.40;;;;;;5056394;28;20028;-77
2021/12/02 08:17:55;;;;;;;3.88;0.57;;;5.70;95.50;;;;;;5056672;28;20037;-77
2021/12/02 08:20:23;;;;;;;3.38;0.55;;;5.70;95.50;;;;;;5056607;28;20117;-80
2021/12/02 08:22:52;;;;;;;4.03;0.40;;;5.80;95.60;;;;;;5055788;28;20025;-78
2021/12/02 08:25:20;;;;;;;5.22;0.60;;;5.80;95.80;;;;;;5055616;28;20033;-80
2021/12/02 08:27:47;;;;;;;6.18;0.93;;;5.90;95.80;;;;;;5056299;28;20049;-79
2021/12/02 08:30:15;;;;;;;3.03;0.80;;;5.90;95.70;;;;;;5056281;28;20441;-80
2021/12/02 08:32:43;;;;;;;4.15;0.70;;;6.00;95.70;;;;;;5056958;28;20067;-80
2021/12/02 08:35:14;;;;;;;4.32;1.15;;;6.00;95.80;;;;;;5056554;28;20352;-80
2021/12/02 08:37:44;;;;;;;4.05;0.80;;;6.00;95.80;;;;;;5056291;28;20095;-80
2021/12/02 08:40:12;;;;;;;3.80;0.60;;;5.90;95.70;;;;;;5056476;28;20031;-80
2021/12/02 08:42:37;;;;;;;5.22;0.88;;;6.00;95.80;;;;;;5056158;28;20434;-79
2021/12/02 08:45:04;;;;;;;6.53;0.80;;;6.00;95.90;;;;;;5056357;28;20053;-80
2021/12/02 08:47:29;;;;;;;5.78;1.20;;;6.00;96.20;;;;;;5056436;28;20063;-79
2021/12/02 08:49:56;;;;;;;8.10;0.77;;;6.00;95.80;;;;;;5055983;28;20021;-80
2021/12/02 08:52:24;;;;;;;5.32;0.80;;;6.00;95.90;;;;;;5056576;28;20033;-82
2021/12/02 08:54:50;;;;;;;3.95;0.95;;;6.00;95.80;;;;;;5051522;28;20365;-79
2021/12/02 08:57:21;;;;;;;6.40;1.27;;;5.90;95.60;;;;;;5036049;28;20033;-81
2021/12/02 08:59:48;;;;;;;3.30;1.15;;;5.80;95.80;;;;;;5048737;28;20033;-80
2021/12/02 09:02:14;;;;;;;3.65;0.93;;;5.80;96.10;;;;;;5050267;28;20037;-89
2021/12/02 09:04:39;;;;;;;4.88;0.85;;;5.90;96.10;;;;;;5037158;28;20101;-86
2021/12/02 09:07:06;;;;;;;4.50;0.90;;;5.90;96.00;;;;;;5039211;28;20029;-91
2021/12/02 09:09:31;;;;;;;4.45;1.25;;;6.00;95.80;;;;;;5036624;28;20061;-88
2021/12/02 09:11:57;;;;;;;3.50;1.00;;;5.90;95.80;;;;;;5033213;28;20034;-88
2021/12/02 09:14:26;;;;;;;4.40;1.08;;;5.90;95.80;;;;;;5034878;28;20169;-85
2021/12/02 09:16:52;;;;;;;5.20;1.00;;;5.90;95.80;;;;;;5045134;23;20032;-89
2021/12/02 09:19:19;;;;;;;3.88;0.60;;;5.90;96.00;;;;;;5055672;28;20249;-89
2021/12/02 09:21:45;;;;;;;5.38;0.82;;;5.90;96.00;;;;;;5055098;28;20100;-86
2021/12/02 09:24:18;;;;;;;2.30;0.63;;;5.90;96.00;;;;;;5053829;28;20037;-84
2021/12/02 09:26:47;;;;;;;4.80;0.57;;;6.00;96.30;;;;;;5051620;28;20113;-83
2021/12/02 09:29:17;;;;;;;1.80;0.52;;;5.90;95.90;;;;;;5054356;28;20040;-84
2021/12/02 09:31:44;;;;;;;7.72;1.13;;;5.90;96.10;;;;;;5054309;28;20029;-87
2021/12/02 09:34:10;;;;;;;7.07;1.30;;;6.00;96.20;;;;;;5054596;28;20112;-87
2021/12/02 09:36:36;;;;;;;5.43;0.70;;;6.00;96.20;;;;;;5054218;28;20029;-88
2021/12/02 09:39:03;;;;;;;7.07;0.80;;;6.10;96.40;;;;;;5054158;28;20025;-86
2021/12/02 09:41:29;;;;;;;5.47;0.70;;;6.10;96.00;;;;;;5053309;28;20029;-85
2021/12/02 09:43:55;;;;;;;4.25;0.90;;;6.20;96.00;;;;;;5055763;28;20035;-86
2021/12/02 09:46:20;;;;;;;4.88;0.43;;;6.30;95.80;;;;;;5054303;28;20021;-91
2021/12/02 09:48:47;;;;;;;4.18;0.50;;;6.30;95.80;;;;;;5054141;28;20534;-84
2021/12/02 09:51:20;;;;;;;3.55;0.50;;;6.30;95.60;;;;;;5053855;28;20087;-83
2021/12/02 09:54:23;;;;;;;2.28;0.30;;;6.30;95.40;;;;;;5051987;28;20077;-81
2021/12/02 09:56:39;;;;;;;1.90;0.40;;;6.20;95.60;;;;;;5058093;28;20032;-84
2021/12/02 09:59:11;;;;;;;3.05;0.28;;;6.20;95.80;;;;;;5062951;28;20033;-82
2021/12/02 10:01:43;;;;;;;4.28;0.70;;;6.20;95.80;;;;;;5052348;28;20025;-80
2021/12/02 10:04:11;;;;;;;2.42;0.88;;;6.30;95.90;;;;;;5045874;28;20112;-79
2021/12/02 10:06:37;;;;;;;1.20;0.20;;;6.30;95.80;;;;;;5035349;28;20468;-91
2021/12/02 10:09:26;;;;;;;2.58;0.30;;;6.30;95.90;;;;;;5050370;28;20495;-82
2021/12/02 10:12:01;;;;;;;1.83;0.20;;;6.30;95.70;;;;;;5054565;28;20037;-83
2021/12/02 10:14:33;;;;;;;3.30;0.25;;;6.20;95.70;;;;;;5042495;28;20099;-82
2021/12/02 10:17:09;;;;;;;2.35;0.20;;;6.20;95.60;;;;;;5036146;28;20030;-80
2021/12/02 10:19:35;;;;;;;1.17;0.20;;;6.20;95.80;;;;;;5053940;28;20395;-82
2021/12/02 10:22:08;;;;;;;1.42;0.20;;;6.20;95.90;;;;;;5052946;28;20025;-82
2021/12/02 10:24:42;;;;;;;2.58;0.10;;;6.10;95.80;;;;;;5051930;28;20078;-83
2021/12/02 10:27:09;;;;;;;1.35;0.30;;;6.00;95.70;;;;;;5053229;28;20083;-82
2021/12/02 10:29:36;;;;;;;1.55;0.20;;;6.00;95.90;;;;;;5052975;28;20499;-83
2021/12/02 10:32:12;;;;;;;2.80;0.25;;;6.00;95.90;;;;;;5052592;28;20025;-83
2021/12/02 10:35:06;;;;;;;1.98;0.20;;;6.10;96.00;;;;;;5054405;28;20411;-82
2021/12/02 10:37:34;;;;;;;4.25;0.30;;;6.10;95.60;;;;;;5045668;28;20066;-83
2021/12/02 10:40:09;;;;;;;1.35;0.30;;;6.00;95.70;;;;;;5054420;28;20488;-83
2021/12/02 10:42:42;;;;;;;2.95;0.40;;;6.10;95.60;;;;;;5054572;28;20545;-83
2021/12/02 10:45:31;;;;;;;2.30;0.30;;;6.00;95.40;;;;;;5054482;28;20048;-84
2021/12/02 10:47:58;;;;;;;1.40;0.40;;;6.00;95.50;;;;;;5044043;28;20040;-83
2021/12/02 10:50:25;;;;;;;1.90;0.38;;;6.10;95.80;;;;;;5054211;28;20504;-83
2021/12/02 10:52:51;;;;;;;3.58;0.35;;;6.20;95.60;;;;;;5060647;28;20024;-82
2021/12/02 10:55:22;;;;;;;3.33;0.77;;;6.30;95.50;;;;;;5067253;28;20013;-83
2021/12/02 10:57:58;;;;;;;3.30;0.52;;;6.30;95.40;;;;;;5059107;28;20038;-83
2021/12/02 11:00:26;;;;;;;3.28;0.70;;;6.40;95.30;;;;;;5051717;28;20021;-83
2021/12/02 11:02:59;;;;;;;3.10;0.30;;;6.50;95.30;;;;;;5052281;28;20029;-83
2021/12/02 11:05:34;;;;;;;4.50;0.30;;;6.70;95.50;;;;;;5052406;28;20067;-86
2021/12/02 11:08:05;;;;;;;1.58;0.30;;;6.80;95.30;;;;;;5050147;28;20036;-83
2021/12/02 11:10:49;;;;;;;1.75;0.20;;;6.90;95.00;;;;;;5052536;28;20032;-89
2021/12/02 11:13:21;;;;;;;1.27;0.20;;;6.90;95.00;;;;;;5054438;28;20091;-89
2021/12/02 11:15:46;;;;;;;2.28;0.13;;;7.00;95.10;;;;;;5053455;28;20037;-89
2021/12/02 11:18:15;;;;;;;1.00;0.10;;;7.20;95.00;;;;;;5051703;28;20051;-91
2021/12/02 11:20:50;;;;;;;2.08;0.20;;;7.20;94.90;;;;;;5051286;28;20032;-93
2021/12/02 11:23:21;;;;;;;1.63;0.10;;;7.20;94.60;;;;;;5053000;28;20107;-85
2021/12/02 11:26:05;;;;;;;2.25;0.15;;;7.20;94.20;;;;;;5051579;28;20021;-88
2021/12/02 11:28:34;;;;;;;3.03;0.10;;;7.10;94.20;;;;;;5054617;28;20025;-91
2021/12/02 11:31:12;;;;;;;1.00;0.13;;;7.10;94.20;;;;;;5055685;28;20028;-93
2021/12/02 11:33:39;;;;;;;2.55;0.20;;;7.10;94.30;;;;;;5053464;28;20029;-85
2021/12/02 11:36:18;;;;;;;1.67;0.20;;;7.20;94.60;;;;;;5055881;28;20028;-83
2021/12/02 11:38:44;;;;;;;4.38;0.20;;;7.30;94.90;;;;;;5055824;28;20050;-82
2021/12/02 11:41:10;;;;;;;1.13;0.10;;;7.30;94.70;;;;;;5055923;28;20526;-84
2021/12/02 11:43:38;;;;;;;4.53;0.20;;;7.30;94.40;;;;;;5056450;28;20029;-81
2021/12/02 11:46:09;;;;;;;2.03;0.20;;;7.30;94.30;;;;;;5056045;28;20103;-81
2021/12/02 11:48:38;;;;;;;2.15;0.20;;;7.40;94.60;;;;;;5061699;28;20009;-86
2021/12/02 11:51:14;;;;;;;1.90;0.17;;;7.40;94.50;;;;;;5077197;28;20040;-84
2021/12/02 11:53:40;;;;;;;5.68;0.25;;;7.50;94.80;;;;;;5060033;28;20029;-82
2021/12/02 11:56:16;;;;;;;1.35;0.10;;;7.50;94.50;;;;;;5056100;28;20028;-82
2021/12/02 11:58:43;;;;;;;1.38;0.10;;;7.50;94.40;;;;;;5333799;22;20088;-86
2021/12/02 12:01:24;;;;;;;2.28;0.22;;;7.40;93.70;;;;;;5086403;22;20052;-84
2021/12/02 12:03:54;;;;;;;2.35;0.10;;;7.30;93.80;;;;;;5057205;28;20029;-82
2021/12/02 12:06:31;;;;;;;1.45;0.20;;;7.30;93.90;;;;;;5068111;28;20027;-82
2021/12/02 12:08:58;;;;;;;1.00;0.10;;;7.40;94.00;;;;;;5076944;28;20047;-82
2021/12/02 12:11:27;;;;;;;1.95;0.10;;;7.50;94.10;;;;;;5076648;28;20029;-80
2021/12/02 12:14:44;;;;;;;2.30;0.20;;;7.50;93.70;;;;;;5077275;28;20032;-82
2021/12/02 12:17:20;;;;;;;1.13;0.10;;;7.40;93.30;;;;;;4995831;28;20104;-81
2021/12/02 12:19:55;;;;;;;1.58;0.00;;;7.40;93.30;;;;;;5093182;28;20047;-81
2021/12/02 12:22:35;;;;;;;1.38;0.10;;;7.30;92.80;;;;;;5097202;28;20027;-81
2021/12/02 12:25:15;;;;;;;0.95;0.00;;;7.20;93.20;;;;;;5097082;28;20099;-82
2021/12/02 12:27:41;;;;;;;0.88;0.10;;;7.20;93.50;;;;;;5097158;28;20020;-83
2021/12/02 12:30:09;;;;;;;1.50;0.10;;;7.30;93.80;;;;;;5097348;28;20502;-83
2021/12/02 12:33:12;;;;;;;1.85;0.10;;;7.40;94.00;;;;;;5097005;28;20024;-82
2021/12/02 12:36:04;;;;;;;2.87;0.20;;;7.50;93.80;;;;;;5097433;28;20367;-84
2021/12/02 12:38:33;;;;;;;0.77;0.10;;;7.60;93.50;;;;;;5096812;28;20333;-80
2021/12/02 12:41:11;;;;;;;0.95;0.00;;;7.70;93.40;;;;;;5097006;28;20459;-81
2021/12/02 12:43:45;;;;;;;1.27;0.00;;;7.70;92.80;;;;;;5097864;28;20035;-84
2021/12/02 12:46:18;;;;;;;1.67;0.03;;;7.70;92.50;;;;;;5111503;28;20035;-86
2021/12/02 12:48:44;;;;;;;0.47;0.00;;;7.50;92.50;;;;;;5116512;28;20024;-85
2021/12/02 12:51:16;;;;;;;0.85;0.00;;;7.50;92.80;;;;;;5099494;28;20016;-84
2021/12/02 12:53:44;;;;;;;0.95;0.00;;;7.50;92.80;;;;;;5099584;28;20028;-86
2021/12/02 12:56:13;;;;;;;1.13;0.10;;;7.60;93.10;;;;;;5080191;28;20033;-87
2021/12/02 12:58:57;;;;;;;0.68;0.10;;;7.70;92.50;;;;;;5075932;28;20039;-87
2021/12/02 13:01:25;;;;;;;0.55;0.03;;;7.70;92.50;;;;;;5083880;28;20054;-83
2021/12/02 13:04:03;;;;;;;1.92;0.10;;;7.80;92.80;;;;;;5081441;28;20056;-88
2021/12/02 13:06:32;;;;;;;0.20;0.00;;;7.80;92.10;;;;;;5087643;28;20035;-96
2021/12/02 13:09:02;;;;;;;0.82;0.10;;;7.70;92.30;;;;;;5093543;28;20071;-87
2021/12/02 13:11:31;;;;;;;0.88;0.10;;;7.80;92.20;;;;;;5085143;28;20040;-91
2021/12/02 13:13:58;;;;;;;1.48;0.10;;;7.60;91.90;;;;;;5091360;28;20103;-93
2021/12/02 13:16:24;;;;;;;0.52;0.30;;;7.70;92.50;;;;;;5089702;28;20032;-91
2021/12/02 13:19:10;;;;;;;1.20;0.20;;;7.90;92.20;;;;;;5089726;28;20037;-77
2021/12/02 13:21:38;;;;;;;2.72;0.22;;;7.80;91.80;;;;;;5092656;28;20024;-78
2021/12/02 13:24:09;;;;;;;1.17;0.22;;;8.00;92.00;;;;;;5084346;28;20154;-80